Time;durP1;ratioP1;P1;durP2;ratioP2;P2;SDS_P1;SDS_P2;PMS_P1;PMS_P2;Temp;Humidity;BMP_temperature;BMP_pressure;BME280_temperature;BME280_humidity;BME280_pressure;Samples;Min_cycle;Max_cycle;Signal;HPM_P1;HPM_P2
2021/07/15 00:01:09;;;;;;;;;;;17.50;94.80;;;;;;5093531;28;19905;-37
2021/07/15 00:03:34;;;;;;;;;;;17.60;94.80;;;;;;5093792;28;19950;-36
2021/07/15 00:06:00;;;;;;;;;;;17.70;94.70;;;;;;5093413;28;19943;-37
2021/07/15 00:08:27;;;;;;;;;;;17.70;94.60;;;;;;5093362;28;20302;-36
2021/07/15 00:11:00;;;;;;;;;;;17.60;94.60;;;;;;5093683;28;19947;-36
2021/07/15 00:13:26;;;;;;;;;;;17.60;94.70;;;;;;5093657;28;19914;-37
2021/07/15 00:15:53;;;;;;;;;;;17.60;95.10;;;;;;5093470;28;19910;-37
2021/07/15 00:18:21;;;;;;;;;;;17.60;94.90;;;;;;5093467;28;19904;-37
2021/07/15 00:20:47;;;;;;;;;;;17.70;95.00;;;;;;5093319;28;19915;-37
2021/07/15 00:23:13;;;;;;;;;;;17.60;94.80;;;;;;5093685;28;20323;-36
2021/07/15 00:25:40;;;;;;;;;;;17.50;94.90;;;;;;5093337;28;19904;-37
2021/07/15 00:28:05;;;;;;;;;;;17.50;95.20;;;;;;5093391;28;20300;-37
2021/07/15 00:30:31;;;;;;;;;;;17.50;95.20;;;;;;5093263;28;19954;-37
2021/07/15 00:32:57;;;;;;;;;;;17.70;95.20;;;;;;5093330;28;20403;-37
2021/07/15 00:35:22;;;;;;;;;;;17.60;95.10;;;;;;5092653;28;19923;-36
2021/07/15 00:37:48;;;;;;;;;;;17.70;95.20;;;;;;5092893;28;20003;-36
2021/07/15 00:40:14;;;;;;;;;;;17.70;95.10;;;;;;5093045;28;20262;-37
2021/07/15 00:42:40;;;;;;;;;;;17.70;94.90;;;;;;5093364;28;19910;-37
2021/07/15 00:45:07;;;;;;;;;;;17.70;94.80;;;;;;5096211;28;19990;-36
2021/07/15 00:47:33;;;;;;;;;;;17.80;94.70;;;;;;5097031;28;19904;-37
2021/07/15 00:49:59;;;;;;;;;;;17.70;94.60;;;;;;5096978;28;19957;-37
2021/07/15 00:52:25;;;;;;;;;;;17.70;94.60;;;;;;5097201;28;20300;-37
2021/07/15 00:54:51;;;;;;;;;;;17.60;94.60;;;;;;5096887;28;19907;-37
2021/07/15 00:57:17;;;;;;;;;;;17.60;94.60;;;;;;5096894;28;20356;-37
2021/07/15 00:59:42;;;;;;;;;;;17.60;94.60;;;;;;5096716;28;19911;-37
2021/07/15 01:02:08;;;;;;;;;;;17.60;94.70;;;;;;5096613;28;19904;-37
2021/07/15 01:04:34;;;;;;;;;;;17.60;94.70;;;;;;5096646;28;20339;-37
2021/07/15 01:06:59;;;;;;;;;;;17.70;94.80;;;;;;5096687;28;19960;-37
2021/07/15 01:09:25;;;;;;;;;;;17.70;94.80;;;;;;5096895;28;19957;-37
2021/07/15 01:11:53;;;;;;;;;;;17.70;94.80;;;;;;5096543;28;19904;-36
2021/07/15 01:14:22;;;;;;;;;;;17.70;94.90;;;;;;5096633;28;19912;-37
2021/07/15 01:17:02;;;;;;;;;;;17.70;94.80;;;;;;5096632;28;19904;-37
2021/07/15 01:19:36;;;;;;;;;;;17.70;94.90;;;;;;5078455;28;19904;-36
2021/07/15 01:22:05;;;;;;;;;;;17.60;94.70;;;;;;5096319;28;19986;-37
2021/07/15 01:24:49;;;;;;;;;;;17.60;94.90;;;;;;5096173;28;19935;-37
2021/07/15 01:27:17;;;;;;;;;;;17.60;95.00;;;;;;5096308;28;19910;-36
2021/07/15 01:30:03;;;;;;;;;;;17.60;94.80;;;;;;5077786;28;19908;-36
2021/07/15 01:32:30;;;;;;;;;;;17.60;94.80;;;;;;5096810;28;20362;-36
2021/07/15 01:35:01;;;;;;;;;;;17.60;94.90;;;;;;5077582;28;19916;-36
2021/07/15 01:37:29;;;;;;;;;;;17.60;94.90;;;;;;5096572;28;19983;-35
2021/07/15 01:39:55;;;;;;;;;;;17.60;95.00;;;;;;5096152;28;19953;-37
2021/07/15 01:42:21;;;;;;;;;;;17.70;94.90;;;;;;5096068;28;20282;-36
2021/07/15 01:44:47;;;;;;;;;;;17.70;94.90;;;;;;5096184;28;19904;-36
2021/07/15 01:47:13;;;;;;;;;;;17.60;94.90;;;;;;5096118;28;19904;-36
2021/07/15 01:49:41;;;;;;;;;;;17.60;94.90;;;;;;5095961;28;20348;-36
2021/07/15 01:52:07;;;;;;;;;;;17.60;94.80;;;;;;5096508;28;19904;-36
2021/07/15 01:54:34;;;;;;;;;;;17.60;94.40;;;;;;5095436;28;19908;-38
2021/07/15 01:57:01;;;;;;;;;;;17.50;94.60;;;;;;5095104;28;19911;-36
2021/07/15 01:59:29;;;;;;;;;;;17.50;94.70;;;;;;5096044;28;19908;-36
2021/07/15 02:01:56;;;;;;;;;;;17.50;94.80;;;;;;5095615;28;19904;-38
2021/07/15 02:04:22;;;;;;;;;;;17.50;94.90;;;;;;5095927;28;19908;-36
2021/07/15 02:06:49;;;;;;;;;;;17.50;94.80;;;;;;5096196;28;19953;-36
2021/07/15 02:09:15;;;;;;;;;;;17.50;94.60;;;;;;5095907;28;19904;-38
2021/07/15 02:11:41;;;;;;;;;;;17.60;94.80;;;;;;5095598;28;19919;-37
2021/07/15 02:14:09;;;;;;;;;;;17.90;93.90;;;;;;5095769;28;19947;-37
2021/07/15 02:16:36;;;;;;;;;;;18.00;93.30;;;;;;5095452;28;20411;-37
2021/07/15 02:19:03;;;;;;;;;;;17.90;93.40;;;;;;5095411;28;19908;-37
2021/07/15 02:21:30;;;;;;;;;;;17.80;93.40;;;;;;5095593;28;19911;-37
2021/07/15 02:23:56;;;;;;;;;;;17.80;93.30;;;;;;5095910;28;19904;-37
2021/07/15 02:26:22;;;;;;;;;;;17.70;93.60;;;;;;5095494;28;19930;-36
2021/07/15 02:28:48;;;;;;;;;;;17.80;93.80;;;;;;5095141;28;20271;-37
2021/07/15 02:31:15;;;;;;;;;;;17.70;93.80;;;;;;5077066;28;19904;-36
2021/07/15 02:33:42;;;;;;;;;;;17.70;94.00;;;;;;5095273;28;19928;-36
2021/07/15 02:36:08;;;;;;;;;;;17.80;94.20;;;;;;5094849;28;19974;-36
2021/07/15 02:38:34;;;;;;;;;;;17.80;94.10;;;;;;5095238;28;19904;-37
2021/07/15 02:40:59;;;;;;;;;;;17.80;93.30;;;;;;5095250;28;19911;-37
2021/07/15 02:43:25;;;;;;;;;;;17.80;93.40;;;;;;5094851;28;19904;-37
2021/07/15 02:45:52;;;;;;;;;;;17.90;93.60;;;;;;5094895;28;19904;-36
2021/07/15 02:48:18;;;;;;;;;;;17.90;93.10;;;;;;5094884;28;19908;-36
2021/07/15 02:50:43;;;;;;;;;;;17.80;93.70;;;;;;5095004;28;19904;-37
2021/07/15 02:53:09;;;;;;;;;;;17.80;93.90;;;;;;5095135;28;19904;-38
2021/07/15 02:55:35;;;;;;;;;;;17.70;93.80;;;;;;5094751;28;19977;-37
2021/07/15 02:58:12;;;;;;;;;;;17.80;93.70;;;;;;5076448;28;19927;-36
2021/07/15 03:00:45;;;;;;;;;;;17.80;93.80;;;;;;5094635;28;19911;-36
2021/07/15 03:03:21;;;;;;;;;;;17.80;93.80;;;;;;5094988;28;19911;-37
2021/07/15 03:05:59;;;;;;;;;;;17.70;93.80;;;;;;5095061;28;19911;-37
2021/07/15 03:08:26;;;;;;;;;;;17.70;93.70;;;;;;5094168;28;19946;-36
2021/07/15 03:10:55;;;;;;;;;;;17.70;93.50;;;;;;5094813;28;20343;-37
2021/07/15 03:13:22;;;;;;;;;;;17.60;94.00;;;;;;5094496;28;19957;-36
2021/07/15 03:15:48;;;;;;;;;;;17.60;94.30;;;;;;5094465;28;19904;-38
2021/07/15 03:18:18;;;;;;;;;;;17.60;94.50;;;;;;5094479;28;19904;-36
2021/07/15 03:20:44;;;;;;;;;;;17.80;94.00;;;;;;5094333;28;19911;-37
2021/07/15 03:23:11;;;;;;;;;;;17.80;93.90;;;;;;5093976;28;19908;-36
2021/07/15 03:25:37;;;;;;;;;;;17.60;94.10;;;;;;5093859;28;19991;-36
2021/07/15 03:28:06;;;;;;;;;;;17.60;94.20;;;;;;5093832;28;19911;-36
2021/07/15 03:30:32;;;;;;;;;;;17.50;94.50;;;;;;5093984;28;20003;-37
2021/07/15 03:32:58;;;;;;;;;;;17.40;94.90;;;;;;5093782;28;19930;-36
2021/07/15 03:35:24;;;;;;;;;;;17.50;95.00;;;;;;5094001;28;19915;-37
2021/07/15 03:37:50;;;;;;;;;;;17.50;95.10;;;;;;5093656;28;19957;-37
2021/07/15 03:40:17;;;;;;;;;;;17.50;95.20;;;;;;5093614;28;19904;-37
2021/07/15 03:42:44;;;;;;;;;;;17.50;95.20;;;;;;5093945;28;19991;-36
2021/07/15 03:45:12;;;;;;;;;;;17.50;95.10;;;;;;5093497;28;19995;-36
2021/07/15 03:47:38;;;;;;;;;;;17.60;95.10;;;;;;5093612;28;20279;-35
2021/07/15 03:50:04;;;;;;;;;;;17.60;94.90;;;;;;5093554;28;19911;-35
2021/07/15 03:52:30;;;;;;;;;;;17.70;94.70;;;;;;5093197;28;19911;-46
2021/07/15 03:54:57;;;;;;;;;;;17.70;94.70;;;;;;5093422;28;19984;-36
2021/07/15 03:57:24;;;;;;;;;;;17.70;94.60;;;;;;5093403;28;19904;-35
2021/07/15 03:59:51;;;;;;;;;;;17.60;94.60;;;;;;5075672;28;19904;-35
2021/07/15 04:02:18;;;;;;;;;;;17.60;94.80;;;;;;5093565;28;19950;-36
2021/07/15 04:05:02;;;;;;;;;;;17.60;94.60;;;;;;5093381;28;19926;-36
2021/07/15 04:07:29;;;;;;;;;;;17.60;94.70;;;;;;5094124;28;19904;-38
2021/07/15 04:09:55;;;;;;;;;;;17.70;94.40;;;;;;5093929;28;19911;-37
2021/07/15 04:12:22;;;;;;;;;;;17.70;94.10;;;;;;5093742;28;20255;-37
2021/07/15 04:15:00;;;;;;;;;;;17.70;93.90;;;;;;5093469;28;20344;-37
2021/07/15 04:17:30;;;;;;;;;;;17.80;94.10;;;;;;5093123;28;20436;-38
2021/07/15 04:19:59;;;;;;;;;;;17.80;93.60;;;;;;5096460;28;20343;-37
2021/07/15 04:22:26;;;;;;;;;;;17.70;93.80;;;;;;5097349;28;19904;-36
2021/07/15 04:24:52;;;;;;;;;;;17.60;94.00;;;;;;5097245;28;19914;-37
2021/07/15 04:27:18;;;;;;;;;;;17.50;94.20;;;;;;5097370;28;19995;-37
2021/07/15 04:29:44;;;;;;;;;;;17.50;94.10;;;;;;5097377;28;19907;-36
2021/07/15 04:32:13;;;;;;;;;;;17.50;94.20;;;;;;5097415;28;19904;-36
2021/07/15 04:34:40;;;;;;;;;;;17.50;94.30;;;;;;5096889;28;19916;-36
2021/07/15 04:37:06;;;;;;;;;;;17.80;94.10;;;;;;5097199;28;19908;-36
2021/07/15 04:39:33;;;;;;;;;;;17.80;93.70;;;;;;5097093;28;19908;-36
2021/07/15 04:42:00;;;;;;;;;;;18.00;93.40;;;;;;5097444;28;19995;-36
2021/07/15 04:44:28;;;;;;;;;;;18.00;93.30;;;;;;5097015;28;19904;-36
2021/07/15 04:46:55;;;;;;;;;;;17.90;93.70;;;;;;5097261;28;19904;-35
2021/07/15 04:49:20;;;;;;;;;;;18.00;93.20;;;;;;5096965;28;20314;-36
2021/07/15 04:51:46;;;;;;;;;;;18.20;93.10;;;;;;5097244;28;19904;-37
2021/07/15 04:54:12;;;;;;;;;;;18.30;92.20;;;;;;5096747;28;19912;-36
2021/07/15 04:56:38;;;;;;;;;;;18.00;92.80;;;;;;5096823;28;19904;-37
2021/07/15 04:59:04;;;;;;;;;;;18.10;92.60;;;;;;5096618;28;19923;-36
2021/07/15 05:01:29;;;;;;;;;;;18.10;93.10;;;;;;5097587;28;19910;-36
2021/07/15 05:03:55;;;;;;;;;;;18.20;92.90;;;;;;5096621;28;20379;-37
2021/07/15 05:06:22;;;;;;;;;;;18.10;92.70;;;;;;5096613;28;20045;-37
2021/07/15 05:08:48;;;;;;;;;;;18.20;92.40;;;;;;5078386;28;19908;-39
2021/07/15 05:11:13;;;;;;;;;;;18.10;92.20;;;;;;5096472;28;19903;-37
2021/07/15 05:13:39;;;;;;;;;;;18.30;91.70;;;;;;5096800;28;19961;-37
2021/07/15 05:16:05;;;;;;;;;;;18.30;92.10;;;;;;5096753;28;19908;-37
2021/07/15 05:18:31;;;;;;;;;;;18.30;91.90;;;;;;5096751;28;19954;-36
2021/07/15 05:20:56;;;;;;;;;;;18.50;90.90;;;;;;5077682;28;19954;-36
2021/07/15 05:23:22;;;;;;;;;;;18.30;91.50;;;;;;5096442;28;19933;-36
2021/07/15 05:25:48;;;;;;;;;;;18.40;91.20;;;;;;5096524;28;19927;-36
2021/07/15 05:28:13;;;;;;;;;;;18.40;91.90;;;;;;5096232;28;19904;-37
2021/07/15 05:30:39;;;;;;;;;;;18.30;91.50;;;;;;5096089;28;19904;-36
2021/07/15 05:33:04;;;;;;;;;;;18.20;91.90;;;;;;5096251;28;20271;-38
2021/07/15 05:35:31;;;;;;;;;;;18.00;92.90;;;;;;5096119;28;19948;-37
2021/07/15 05:37:58;;;;;;;;;;;18.20;92.70;;;;;;5096247;28;19911;-36
2021/07/15 05:40:24;;;;;;;;;;;18.20;92.50;;;;;;5077981;28;19908;-37
2021/07/15 05:42:49;;;;;;;;;;;18.30;92.00;;;;;;5096402;28;19950;-37
2021/07/15 05:45:15;;;;;;;;;;;18.20;92.10;;;;;;5096461;28;20302;-36
2021/07/15 05:47:40;;;;;;;;;;;18.40;92.30;;;;;;5077990;28;19904;-36
2021/07/15 05:50:06;;;;;;;;;;;18.80;90.70;;;;;;5096695;28;19908;-37
2021/07/15 05:52:32;;;;;;;;;;;18.40;91.40;;;;;;5096340;28;19919;-36
2021/07/15 05:54:58;;;;;;;;;;;18.50;92.30;;;;;;5095833;28;19915;-36
2021/07/15 05:57:27;;;;;;;;;;;18.30;92.00;;;;;;5095846;28;19904;-36
2021/07/15 05:59:53;;;;;;;;;;;18.30;92.70;;;;;;5095860;28;19965;-37
2021/07/15 06:02:18;;;;;;;;;;;18.50;92.70;;;;;;5095627;28;19945;-36
2021/07/15 06:04:44;;;;;;;;;;;18.60;91.60;;;;;;5095629;28;19927;-37
2021/07/15 06:07:10;;;;;;;;;;;18.80;91.10;;;;;;5095720;28;19997;-37
2021/07/15 06:09:35;;;;;;;;;;;18.80;90.60;;;;;;5095649;28;20275;-37
2021/07/15 06:12:01;;;;;;;;;;;18.80;91.10;;;;;;5095491;28;20378;-37
2021/07/15 06:14:26;;;;;;;;;;;19.00;89.50;;;;;;5095615;28;19908;-44
2021/07/15 06:16:52;;;;;;;;;;;19.20;88.40;;;;;;5095340;28;19961;-37
2021/07/15 06:19:18;;;;;;;;;;;18.90;89.00;;;;;;5095702;28;19908;-37
2021/07/15 06:21:43;;;;;;;;;;;19.30;87.40;;;;;;5077155;28;19911;-37
2021/07/15 06:24:09;;;;;;;;;;;19.40;88.00;;;;;;5095110;28;20271;-42
2021/07/15 06:26:35;;;;;;;;;;;19.60;86.40;;;;;;5095196;28;19904;-37
2021/07/15 06:29:01;;;;;;;;;;;19.30;87.50;;;;;;5076592;28;19949;-38
2021/07/15 06:31:27;;;;;;;;;;;19.30;87.80;;;;;;5095210;28;19904;-37
2021/07/15 06:33:52;;;;;;;;;;;19.10;87.60;;;;;;5094912;28;19912;-37
2021/07/15 06:36:18;;;;;;;;;;;19.40;86.00;;;;;;5076968;28;19916;-37
2021/07/15 06:38:45;;;;;;;;;;;19.50;86.30;;;;;;5095313;28;20370;-38
2021/07/15 06:41:11;;;;;;;;;;;19.80;85.20;;;;;;5094643;28;19904;-38
2021/07/15 06:43:39;;;;;;;;;;;19.70;85.30;;;;;;5095012;28;20348;-37
2021/07/15 06:46:04;;;;;;;;;;;19.60;86.00;;;;;;5094967;28;20302;-37
2021/07/15 06:48:30;;;;;;;;;;;19.30;87.20;;;;;;5094860;28;19904;-37
2021/07/15 06:50:55;;;;;;;;;;;19.30;87.50;;;;;;5094752;28;20332;-37
2021/07/15 06:53:21;;;;;;;;;;;19.30;87.10;;;;;;5076162;28;19939;-38
2021/07/15 06:55:46;;;;;;;;;;;19.30;87.80;;;;;;5095157;28;19904;-38
2021/07/15 06:58:12;;;;;;;;;;;19.30;87.80;;;;;;5076591;28;20370;-38
2021/07/15 07:00:38;;;;;;;;;;;19.40;86.70;;;;;;5094322;28;19904;-37
2021/07/15 07:03:03;;;;;;;;;;;19.40;86.30;;;;;;5095082;28;19904;-37
2021/07/15 07:05:29;;;;;;;;;;;19.40;86.50;;;;;;5094655;28;19911;-38
2021/07/15 07:07:54;;;;;;;;;;;19.30;87.20;;;;;;5094807;28;19911;-37
2021/07/15 07:10:20;;;;;;;;;;;19.50;86.60;;;;;;5094469;28;19994;-37
2021/07/15 07:12:46;;;;;;;;;;;19.50;86.70;;;;;;5094369;28;19956;-38
2021/07/15 07:15:13;;;;;;;;;;;19.80;86.20;;;;;;5094271;28;20208;-37
2021/07/15 07:17:38;;;;;;;;;;;19.80;84.80;;;;;;5094629;28;19904;-37
2021/07/15 07:20:05;;;;;;;;;;;19.80;84.60;;;;;;5095084;28;19911;-37
2021/07/15 07:22:30;;;;;;;;;;;19.70;84.40;;;;;;5094224;28;19904;-37
2021/07/15 07:24:56;;;;;;;;;;;19.80;83.80;;;;;;5094884;28;19911;-37
2021/07/15 07:27:21;;;;;;;;;;;20.30;82.60;;;;;;5094579;28;19911;-37
2021/07/15 07:29:47;;;;;;;;;;;20.50;81.90;;;;;;5095556;28;19983;-37
2021/07/15 07:32:12;;;;;;;;;;;20.70;81.40;;;;;;5094095;28;19907;-36
2021/07/15 07:34:38;;;;;;;;;;;21.00;80.00;;;;;;5093528;28;19969;-37
2021/07/15 07:37:03;;;;;;;;;;;20.90;80.40;;;;;;5093885;28;19904;-48
2021/07/15 07:39:29;;;;;;;;;;;21.00;79.60;;;;;;5075732;28;19904;-36
2021/07/15 07:41:54;;;;;;;;;;;20.30;81.60;;;;;;5094477;28;19904;-36
2021/07/15 07:44:20;;;;;;;;;;;20.50;81.50;;;;;;5076709;28;19949;-37
2021/07/15 07:46:45;;;;;;;;;;;20.30;81.00;;;;;;5093820;28;20002;-37
2021/07/15 07:49:11;;;;;;;;;;;20.30;81.60;;;;;;5094557;28;20374;-37
2021/07/15 07:51:36;;;;;;;;;;;20.70;80.70;;;;;;5093624;28;20003;-37
2021/07/15 07:54:02;;;;;;;;;;;21.10;79.10;;;;;;5092897;28;19966;-36
2021/07/15 07:56:28;;;;;;;;;;;21.40;77.90;;;;;;5075591;28;20352;-39
2021/07/15 07:58:54;;;;;;;;;;;21.40;77.60;;;;;;5075513;28;19914;-37
2021/07/15 08:01:20;;;;;;;;;;;20.80;80.00;;;;;;5093905;28;19908;-37
2021/07/15 08:03:45;;;;;;;;;;;21.30;78.90;;;;;;5093671;28;19911;-38
2021/07/15 08:06:11;;;;;;;;;;;22.30;75.20;;;;;;5093490;28;19930;-38
2021/07/15 08:08:39;;;;;;;;;;;22.80;73.50;;;;;;5093848;28;19904;-37
2021/07/15 08:11:05;;;;;;;;;;;23.10;72.20;;;;;;5093378;28;19904;-37
2021/07/15 08:13:30;;;;;;;;;;;22.80;71.20;;;;;;5093816;28;20044;-37
2021/07/15 08:15:56;;;;;;;;;;;22.50;72.70;;;;;;5093280;28;19911;-37
2021/07/15 08:18:23;;;;;;;;;;;23.10;70.10;;;;;;5093413;28;19915;-42
2021/07/15 08:20:49;;;;;;;;;;;23.10;70.60;;;;;;5075834;28;19911;-37
2021/07/15 08:23:15;;;;;;;;;;;21.80;74.80;;;;;;5093429;28;20352;-37
2021/07/15 08:25:40;;;;;;;;;;;21.80;75.50;;;;;;5093271;28;19991;-38
2021/07/15 08:28:06;;;;;;;;;;;21.50;76.50;;;;;;5075342;28;19908;-37
2021/07/15 08:30:31;;;;;;;;;;;21.10;78.00;;;;;;5093549;28;20286;-36
2021/07/15 08:32:59;;;;;;;;;;;21.50;77.80;;;;;;5093972;28;19929;-37
2021/07/15 08:35:25;;;;;;;;;;;22.60;73.50;;;;;;5093479;28;20006;-38
2021/07/15 08:37:51;;;;;;;;;;;22.60;73.20;;;;;;5094147;28;19969;-39
2021/07/15 08:40:17;;;;;;;;;;;23.10;69.80;;;;;;5074975;28;20003;-35
2021/07/15 08:42:43;;;;;;;;;;;23.70;66.80;;;;;;5093089;28;19929;-36
2021/07/15 08:45:09;;;;;;;;;;;23.70;67.30;;;;;;5093260;28;19904;-36
2021/07/15 08:47:38;;;;;;;;;;;23.90;66.80;;;;;;5093242;28;19911;-38
2021/07/15 08:50:04;;;;;;;;;;;24.70;64.40;;;;;;5092746;28;19911;-38
2021/07/15 08:52:31;;;;;;;;;;;24.40;65.30;;;;;;5075145;28;19904;-38
2021/07/15 08:55:05;;;;;;;;;;;24.80;64.20;;;;;;5094180;28;19908;-38
2021/07/15 08:57:30;;;;;;;;;;;25.00;62.10;;;;;;5093267;28;19904;-36
2021/07/15 08:59:56;;;;;;;;;;;24.40;64.30;;;;;;5093194;28;19912;-37
2021/07/15 09:02:22;;;;;;;;;;;25.50;61.00;;;;;;5093030;28;19914;-37
2021/07/15 09:04:48;;;;;;;;;;;25.30;61.00;;;;;;5094593;28;19928;-37
2021/07/15 09:07:14;;;;;;;;;;;26.00;59.60;;;;;;5097975;28;19904;-36
2021/07/15 09:09:39;;;;;;;;;;;27.00;56.30;;;;;;5078459;28;19904;-37
2021/07/15 09:12:05;;;;;;;;;;;26.10;60.00;;;;;;5078392;28;19955;-38
2021/07/15 09:14:42;;;;;;;;;;;26.70;58.80;;;;;;5096917;28;20382;-37
2021/07/15 09:17:07;;;;;;;;;;;26.20;59.60;;;;;;5096989;28;19995;-37
2021/07/15 09:19:33;;;;;;;;;;;25.20;62.50;;;;;;5096496;28;19903;-38
2021/07/15 09:22:09;;;;;;;;;;;25.20;63.20;;;;;;5096650;28;19984;-37
2021/07/15 09:24:39;;;;;;;;;;;25.10;62.80;;;;;;5097217;28;20323;-41
2021/07/15 09:27:21;;;;;;;;;;;23.80;65.80;;;;;;5078104;28;19951;-38
2021/07/15 09:30:05;;;;;;;;;;;24.20;64.30;;;;;;5096434;28;19991;-38
2021/07/15 09:32:31;;;;;;;;;;;24.70;62.50;;;;;;5096600;28;19998;-37
2021/07/15 09:35:06;;;;;;;;;;;24.80;62.10;;;;;;5096292;28;19920;-37
2021/07/15 09:37:35;;;;;;;;;;;25.40;60.50;;;;;;5096480;28;19998;-37
2021/07/15 09:40:02;;;;;;;;;;;25.20;60.00;;;;;;5096020;28;19953;-38
2021/07/15 09:42:28;;;;;;;;;;;25.20;60.30;;;;;;5078393;28;19904;-37
2021/07/15 09:44:54;;;;;;;;;;;25.90;59.20;;;;;;5077747;28;19903;-37
2021/07/15 09:47:35;;;;;;;;;;;24.70;63.00;;;;;;5095751;28;19904;-37
2021/07/15 09:50:01;;;;;;;;;;;24.40;64.50;;;;;;5096626;28;19919;-38
2021/07/15 09:52:27;;;;;;;;;;;24.50;63.50;;;;;;5095941;28;19965;-38
2021/07/15 09:54:53;;;;;;;;;;;24.80;63.40;;;;;;5095961;28;19912;-38
2021/07/15 09:57:25;;;;;;;;;;;24.50;64.60;;;;;;5095439;28;19905;-38
2021/07/15 09:59:51;;;;;;;;;;;24.50;64.20;;;;;;5095724;28;20267;-37
2021/07/15 10:02:27;;;;;;;;;;;24.50;64.70;;;;;;5095612;28;19904;-37
2021/07/15 10:04:52;;;;;;;;;;;24.40;63.70;;;;;;5095864;28;19915;-38
2021/07/15 10:07:22;;;;;;;;;;;24.40;63.50;;;;;;5095794;28;19904;-37
2021/07/15 10:09:48;;;;;;;;;;;23.90;64.90;;;;;;5077178;28;19908;-37
2021/07/15 10:12:23;;;;;;;;;;;23.80;66.10;;;;;;5076879;28;19911;-38
2021/07/15 10:14:49;;;;;;;;;;;23.50;66.50;;;;;;5095319;28;20002;-38
2021/07/15 10:17:15;;;;;;;;;;;23.50;67.30;;;;;;5076131;28;19904;-38
2021/07/15 10:19:40;;;;;;;;;;;23.50;67.40;;;;;;5095054;28;19904;-37
2021/07/15 10:22:08;;;;;;;;;;;23.30;68.80;;;;;;5095061;28;19904;-38
2021/07/15 10:24:34;;;;;;;;;;;23.90;67.20;;;;;;5095153;28;20240;-38
2021/07/15 10:27:03;;;;;;;;;;;24.10;66.50;;;;;;5095304;28;19904;-38
2021/07/15 10:29:30;;;;;;;;;;;24.60;64.80;;;;;;5095821;28;19911;-43
2021/07/15 10:31:55;;;;;;;;;;;24.50;62.90;;;;;;5094957;28;19998;-37
2021/07/15 10:34:21;;;;;;;;;;;24.80;62.40;;;;;;5094749;28;19939;-37
2021/07/15 10:36:49;;;;;;;;;;;24.30;64.90;;;;;;5095056;28;19903;-38
2021/07/15 10:39:15;;;;;;;;;;;24.60;64.50;;;;;;5095524;28;19904;-39
2021/07/15 10:41:41;;;;;;;;;;;24.80;63.00;;;;;;5094824;28;20327;-37
2021/07/15 10:44:08;;;;;;;;;;;24.30;65.00;;;;;;5095563;28;19907;-37
2021/07/15 10:46:34;;;;;;;;;;;24.90;63.50;;;;;;5094519;28;20240;-37
2021/07/15 10:49:00;;;;;;;;;;;24.60;65.30;;;;;;5094990;28;19904;-36
2021/07/15 10:51:25;;;;;;;;;;;24.80;64.90;;;;;;5095434;28;19988;-37
2021/07/15 10:53:51;;;;;;;;;;;24.70;65.00;;;;;;5094451;28;19908;-37
2021/07/15 10:56:18;;;;;;;;;;;23.90;66.90;;;;;;5094939;28;19904;-37
2021/07/15 10:58:45;;;;;;;;;;;24.10;67.80;;;;;;5095008;28;19904;-38
2021/07/15 11:01:11;;;;;;;;;;;24.20;67.50;;;;;;5095036;28;19933;-39
2021/07/15 11:03:37;;;;;;;;;;;24.00;68.10;;;;;;5076861;28;20363;-36
2021/07/15 11:06:03;;;;;;;;;;;23.80;67.90;;;;;;5095746;28;19957;-36
2021/07/15 11:08:43;;;;;;;;;;;23.50;68.90;;;;;;5076916;28;19904;-37
2021/07/15 11:11:09;;;;;;;;;;;23.30;69.90;;;;;;5095030;28;19927;-38
2021/07/15 11:13:35;;;;;;;;;;;23.10;70.50;;;;;;5094779;28;19911;-37
2021/07/15 11:16:04;;;;;;;;;;;22.90;71.50;;;;;;5094933;28;19954;-37
2021/07/15 11:18:45;;;;;;;;;;;23.00;71.60;;;;;;5094684;28;19904;-37
2021/07/15 11:21:32;;;;;;;;;;;23.00;70.90;;;;;;5076506;28;19904;-37
2021/07/15 11:24:04;;;;;;;;;;;23.20;70.00;;;;;;5094906;28;19911;-38
2021/07/15 11:26:32;;;;;;;;;;;23.30;69.80;;;;;;5094850;28;19904;-37
2021/07/15 11:28:59;;;;;;;;;;;23.30;70.20;;;;;;5077320;28;19904;-38
2021/07/15 11:31:47;;;;;;;;;;;23.30;70.30;;;;;;5075860;28;19911;-37
2021/07/15 11:34:31;;;;;;;;;;;23.50;68.60;;;;;;5076160;28;20382;-37
2021/07/15 11:37:16;;;;;;;;;;;23.40;69.30;;;;;;5096781;28;19950;-37
2021/07/15 11:39:41;;;;;;;;;;;23.50;69.30;;;;;;5094243;28;19904;-37
2021/07/15 11:42:17;;;;;;;;;;;23.70;69.30;;;;;;5093956;28;20197;-38
2021/07/15 11:44:58;;;;;;;;;;;23.80;68.30;;;;;;5093684;28;19930;-36
2021/07/15 11:47:42;;;;;;;;;;;24.00;68.60;;;;;;5094234;28;20252;-39
2021/07/15 11:50:28;;;;;;;;;;;24.20;68.00;;;;;;5075868;28;19904;-38
2021/07/15 11:53:12;;;;;;;;;;;24.80;65.80;;;;;;5093732;28;20355;-41
2021/07/15 11:55:38;;;;;;;;;;;25.10;65.20;;;;;;5075733;28;19955;-37
2021/07/15 11:58:03;;;;;;;;;;;24.80;65.60;;;;;;5093936;28;19926;-38
2021/07/15 12:00:29;;;;;;;;;;;24.60;66.70;;;;;;5075603;28;19904;-47
2021/07/15 12:02:56;;;;;;;;;;;24.40;66.60;;;;;;5093692;28;20361;-38
2021/07/15 12:05:32;;;;;;;;;;;24.40;66.80;;;;;;5093518;28;19969;-39
2021/07/15 12:08:07;;;;;;;;;;;24.40;67.10;;;;;;5075633;28;19904;-38
2021/07/15 12:10:38;;;;;;;;;;;25.30;63.60;;;;;;5093586;28;19912;-36
2021/07/15 12:13:05;;;;;;;;;;;25.10;64.50;;;;;;5093509;28;19904;-36
2021/07/15 12:15:31;;;;;;;;;;;25.80;63.00;;;;;;5093572;28;20360;-38
2021/07/15 12:17:57;;;;;;;;;;;26.70;60.20;;;;;;5093440;28;19911;-38
2021/07/15 12:20:24;;;;;;;;;;;26.40;61.10;;;;;;5093503;28;19915;-37
2021/07/15 12:22:56;;;;;;;;;;;25.50;63.00;;;;;;5093486;28;19908;-38
2021/07/15 12:25:24;;;;;;;;;;;25.20;64.30;;;;;;5059888;28;19908;-37
2021/07/15 12:27:51;;;;;;;;;;;24.70;66.10;;;;;;5075100;28;20320;-37
2021/07/15 12:30:17;;;;;;;;;;;24.10;68.50;;;;;;5093539;28;19987;-37
2021/07/15 12:32:53;;;;;;;;;;;24.10;69.60;;;;;;5094476;28;19942;-38
2021/07/15 12:35:18;;;;;;;;;;;23.90;71.00;;;;;;5093522;28;19916;-40
2021/07/15 12:37:44;;;;;;;;;;;24.00;70.60;;;;;;5075744;28;19983;-38
2021/07/15 12:40:10;;;;;;;;;;;23.80;69.50;;;;;;5095397;28;19904;-38
2021/07/15 12:42:36;;;;;;;;;;;23.70;69.70;;;;;;5097705;28;20252;-38
2021/07/15 12:45:18;;;;;;;;;;;23.80;70.10;;;;;;5097703;28;20002;-37
2021/07/15 12:47:56;;;;;;;;;;;23.90;69.60;;;;;;5097318;28;19957;-40
2021/07/15 12:50:22;;;;;;;;;;;23.80;69.90;;;;;;5097804;28;19926;-37
2021/07/15 12:52:47;;;;;;;;;;;24.00;69.00;;;;;;5097390;28;19907;-36
2021/07/15 12:55:25;;;;;;;;;;;23.90;68.90;;;;;;5097411;28;19958;-36
2021/07/15 12:57:54;;;;;;;;;;;23.60;68.80;;;;;;5097469;28;19904;-38
2021/07/15 13:00:19;;;;;;;;;;;23.50;69.70;;;;;;5097585;28;20255;-38
2021/07/15 13:02:45;;;;;;;;;;;23.70;69.60;;;;;;5097336;28;19904;-37
2021/07/15 13:05:17;;;;;;;;;;;23.70;70.40;;;;;;5097603;28;19953;-37
2021/07/15 13:07:46;;;;;;;;;;;23.80;69.30;;;;;;5078998;28;19935;-38
2021/07/15 13:10:38;;;;;;;;;;;23.50;70.50;;;;;;5078650;28;19904;-37
2021/07/15 13:15:51;;;;;;;;;;;23.40;70.40;;;;;;5097235;28;19919;-38
2021/07/15 13:18:17;;;;;;;;;;;23.50;70.30;;;;;;5097983;28;19951;-37
2021/07/15 13:20:44;;;;;;;;;;;23.50;70.10;;;;;;5097300;28;19995;-41
2021/07/15 13:23:09;;;;;;;;;;;23.20;71.10;;;;;;5096804;28;20365;-38
2021/07/15 13:25:41;;;;;;;;;;;23.30;71.40;;;;;;5096494;28;19911;-36
2021/07/15 13:28:09;;;;;;;;;;;23.30;71.10;;;;;;5078733;28;19998;-36
2021/07/15 13:30:37;;;;;;;;;;;23.30;71.20;;;;;;5096556;28;19908;-36
2021/07/15 13:33:29;;;;;;;;;;;23.50;70.30;;;;;;5096590;28;20356;-37
2021/07/15 13:35:54;;;;;;;;;;;23.60;70.40;;;;;;5091821;28;20271;-38
2021/07/15 13:38:20;;;;;;;;;;;23.70;70.00;;;;;;5096910;28;19904;-37
2021/07/15 13:40:47;;;;;;;;;;;23.80;70.40;;;;;;5078770;28;20275;-38
2021/07/15 13:43:16;;;;;;;;;;;23.90;70.10;;;;;;5097361;28;19908;-37
2021/07/15 13:45:43;;;;;;;;;;;23.80;70.00;;;;;;5096733;28;19908;-37
2021/07/15 13:48:18;;;;;;;;;;;23.90;70.00;;;;;;5096294;28;19953;-38
2021/07/15 13:50:45;;;;;;;;;;;24.10;69.30;;;;;;5078156;28;19915;-39
2021/07/15 13:53:12;;;;;;;;;;;24.30;68.40;;;;;;5096767;28;20275;-38
2021/07/15 13:55:39;;;;;;;;;;;24.50;67.90;;;;;;5096141;28;19931;-37
2021/07/15 13:58:05;;;;;;;;;;;24.70;67.70;;;;;;5077972;28;19999;-37
2021/07/15 14:00:34;;;;;;;;;;;24.80;66.40;;;;;;5096373;28;19962;-37
2021/07/15 14:03:01;;;;;;;;;;;24.80;65.70;;;;;;5096593;28;19904;-38
2021/07/15 14:05:30;;;;;;;;;;;25.00;65.00;;;;;;5096573;28;19904;-38
2021/07/15 14:07:57;;;;;;;;;;;24.90;66.00;;;;;;5097127;28;19911;-37
2021/07/15 14:10:22;;;;;;;;;;;24.40;67.00;;;;;;5095785;28;20355;-37
2021/07/15 14:12:48;;;;;;;;;;;24.40;67.60;;;;;;5095856;28;19904;-36
2021/07/15 14:15:33;;;;;;;;;;;24.30;67.90;;;;;;5095708;28;20314;-36
2021/07/15 14:18:02;;;;;;;;;;;24.90;65.40;;;;;;5095729;28;19904;-37
2021/07/15 14:20:28;;;;;;;;;;;25.60;63.30;;;;;;5094943;28;19904;-38
2021/07/15 14:22:55;;;;;;;;;;;25.60;63.80;;;;;;5095621;28;19904;-37